createdAt,value
2022-11-21T00:00:17.209Z,43.83
2022-11-21T00:03:19.319Z,38.60
2022-11-21T00:06:21.156Z,43.20
2022-11-21T00:09:22.742Z,45.00
2022-11-21T00:12:24.437Z,43.30
2022-11-21T00:15:26.519Z,47.58
2022-11-21T00:18:28.130Z,40.58
2022-11-21T00:21:29.727Z,44.70
2022-11-21T00:24:31.384Z,42.07
2022-11-21T00:27:33.023Z,39.33
2022-11-21T00:30:34.683Z,47.50
2022-11-21T00:33:39.327Z,42.08
2022-11-21T00:36:40.939Z,44.43
2022-11-21T00:39:42.623Z,43.30
2022-11-21T00:42:44.484Z,42.72
2022-11-21T00:45:46.079Z,42.08
2022-11-21T00:48:47.732Z,42.35
2022-11-21T00:51:49.353Z,43.27
2022-11-21T00:54:51.075Z,41.17
2022-11-21T00:57:52.647Z,39.30
2022-11-21T01:01:03.357Z,42.45
2022-11-21T01:04:05.314Z,43.03
2022-11-21T01:07:06.971Z,37.67
2022-11-21T01:10:08.742Z,40.57
2022-11-21T01:13:10.449Z,41.92
2022-11-21T01:16:23.885Z,40.30
2022-11-21T01:19:25.517Z,39.15
2022-11-21T01:22:27.224Z,36.23
2022-11-21T01:25:28.766Z,36.47
2022-11-21T01:28:30.922Z,40.22
2022-11-21T01:31:32.681Z,41.00
2022-11-21T01:34:34.438Z,43.33
2022-11-21T01:37:36.225Z,38.53
2022-11-21T01:40:39.547Z,38.53
2022-11-21T01:43:41.542Z,34.78
2022-11-21T01:46:43.335Z,39.53
2022-11-21T01:49:47.021Z,41.10
2022-11-21T01:52:48.706Z,42.43
2022-11-21T01:55:50.845Z,35.77
2022-11-21T01:58:57.447Z,38.00
2022-11-21T02:02:02.231Z,37.60
2022-11-21T02:05:08.296Z,37.88
2022-11-21T02:08:17.994Z,33.63
2022-11-21T02:11:37.722Z,37.97
2022-11-21T02:14:42.340Z,34.92
2022-11-21T02:17:44.042Z,36.53
2022-11-21T02:20:53.291Z,37.03
2022-11-21T02:24:03.893Z,33.00
2022-11-21T02:27:05.543Z,36.73
2022-11-21T02:30:09.625Z,39.47
2022-11-21T02:33:12.568Z,37.70
2022-11-21T02:36:46.713Z,39.78
2022-11-21T02:39:48.933Z,41.40
2022-11-21T02:43:17.078Z,34.37
2022-11-21T02:46:18.683Z,36.75
2022-11-21T02:49:39.675Z,35.28
2022-11-21T02:52:44.552Z,43.13
2022-11-21T02:55:46.277Z,38.70
2022-11-21T02:58:48.148Z,33.70
2022-11-21T03:01:49.807Z,36.83
2022-11-21T03:04:51.568Z,38.47
2022-11-21T03:07:53.229Z,32.50
2022-11-21T03:10:54.918Z,37.17
2022-11-21T03:13:56.553Z,36.77
2022-11-21T03:16:58.141Z,34.47
2022-11-21T03:19:59.818Z,37.17
2022-11-21T03:23:02.295Z,35.42
2022-11-21T03:26:03.871Z,38.23
2022-11-21T03:29:05.456Z,31.53
2022-11-21T03:32:07.089Z,38.10
2022-11-21T03:35:09.029Z,34.88
2022-11-21T03:38:10.663Z,35.20
2022-11-21T03:41:30.732Z,34.73
2022-11-21T03:44:32.330Z,34.13
2022-11-21T03:47:34.192Z,35.03
2022-11-21T03:50:35.869Z,29.05
2022-11-21T03:53:37.456Z,30.73
2022-11-21T03:56:41.614Z,37.47
2022-11-21T03:59:43.183Z,36.10
2022-11-21T04:02:44.747Z,30.50
2022-11-21T04:05:46.322Z,30.67
2022-11-21T04:08:49.038Z,34.38
2022-11-21T04:11:50.690Z,38.13
2022-11-21T04:14:52.295Z,34.73
2022-11-21T04:17:53.962Z,31.63
2022-11-21T04:21:02.968Z,31.63
2022-11-21T04:24:04.924Z,33.25
2022-11-21T04:27:06.584Z,31.97
2022-11-21T04:30:08.604Z,33.53
2022-11-21T04:33:12.308Z,30.38
2022-11-21T04:36:15.986Z,31.33
2022-11-21T04:39:17.587Z,32.55
2022-11-21T04:42:19.160Z,34.20
2022-11-21T04:45:20.746Z,37.23
2022-11-21T04:48:22.492Z,32.70
2022-11-21T04:51:24.127Z,38.50
2022-11-21T04:54:26.126Z,34.25
2022-11-21T04:57:28.951Z,34.67
2022-11-21T05:00:30.577Z,33.13
2022-11-21T05:03:32.241Z,34.17
2022-11-21T05:06:33.814Z,38.08
2022-11-21T05:09:35.431Z,32.78
2022-11-21T05:12:55.407Z,39.17
2022-11-21T05:15:57.666Z,35.07
2022-11-21T05:18:59.244Z,34.35
2022-11-21T05:22:00.828Z,36.08
2022-11-21T05:25:02.439Z,37.72
2022-11-21T05:28:04.148Z,35.87
2022-11-21T05:31:05.749Z,36.37
2022-11-21T05:34:09.934Z,34.83
2022-11-21T05:37:11.537Z,37.78
2022-11-21T05:40:13.344Z,28.30
2022-11-21T05:43:33.357Z,33.07
2022-11-21T05:46:34.969Z,32.23
2022-11-21T05:49:37.090Z,34.17
2022-11-21T05:52:38.726Z,32.65
2022-11-21T05:55:40.316Z,39.33
2022-11-21T05:58:42.615Z,30.27
2022-11-21T06:02:02.849Z,39.00
2022-11-21T06:05:04.755Z,34.60
2022-11-21T06:08:06.355Z,33.92
2022-11-21T06:11:10.464Z,40.22
2022-11-21T06:14:12.138Z,35.87
2022-11-21T06:17:13.763Z,37.43
2022-11-21T06:20:15.452Z,35.15
2022-11-21T06:23:17.156Z,39.85
2022-11-21T06:26:22.541Z,36.75
2022-11-21T06:29:24.215Z,34.23
2022-11-21T06:32:25.954Z,38.83
2022-11-21T06:35:27.571Z,37.15
2022-11-21T06:38:29.227Z,37.00
2022-11-21T06:41:31.913Z,34.67
2022-11-21T06:44:33.488Z,49.07
2022-11-21T06:47:35.679Z,38.33
2022-11-21T06:50:38.661Z,41.05
2022-11-21T06:53:40.285Z,41.88
2022-11-21T06:56:42.154Z,37.67
2022-11-21T06:59:43.951Z,41.07
2022-11-21T07:02:45.941Z,37.10
2022-11-21T07:05:48.184Z,39.88
2022-11-21T07:09:17.518Z,39.13
2022-11-21T07:12:43.465Z,41.45
2022-11-21T07:15:46.487Z,41.70
2022-11-21T07:18:51.421Z,41.60
2022-11-21T07:21:53.261Z,45.97
2022-11-21T07:24:54.987Z,41.47
2022-11-21T07:28:01.016Z,42.00
2022-11-21T07:31:07.033Z,41.63
2022-11-21T07:34:11.908Z,41.87
2022-11-21T07:37:13.587Z,44.42
2022-11-21T07:40:15.367Z,41.03
2022-11-21T07:43:17.036Z,42.00
2022-11-21T07:46:18.622Z,39.37
2022-11-21T07:49:20.284Z,40.57
2022-11-21T07:52:22.074Z,40.45
2022-11-21T07:55:23.663Z,41.10
2022-11-21T07:58:25.423Z,38.42
2022-11-21T08:01:27.124Z,40.73
2022-11-21T08:04:29.083Z,37.53
2022-11-21T08:07:30.867Z,41.50
2022-11-21T08:10:33.059Z,38.83
2022-11-21T08:13:35.432Z,40.97
2022-11-21T08:16:37.079Z,37.50
2022-11-21T08:19:38.720Z,35.67
2022-11-21T08:22:41.631Z,38.08
2022-11-21T08:25:43.828Z,45.15
2022-11-21T08:28:45.504Z,42.45
2022-11-21T08:31:47.145Z,38.30
2022-11-21T08:34:48.760Z,39.87
2022-11-21T08:37:55.743Z,38.80
2022-11-21T08:41:23.528Z,38.78
2022-11-21T08:44:25.183Z,35.30
2022-11-21T08:47:27.118Z,37.27
2022-11-21T08:50:28.922Z,37.63
2022-11-21T08:53:30.553Z,34.42
2022-11-21T08:56:32.181Z,35.72
2022-11-21T08:59:35.866Z,41.35
2022-11-21T09:02:37.484Z,40.53
2022-11-21T09:05:39.066Z,40.57
2022-11-21T09:08:40.690Z,41.22
2022-11-21T09:11:42.727Z,38.97
2022-11-21T09:15:03.039Z,40.08
2022-11-21T09:18:05.222Z,37.33
2022-11-21T09:21:07.243Z,39.33
2022-11-21T09:24:08.836Z,31.13
2022-11-21T09:27:10.443Z,33.15
2022-11-21T09:30:12.229Z,27.65
2022-11-21T09:33:17.054Z,36.10
2022-11-21T09:36:18.688Z,42.10
2022-11-21T09:39:21.660Z,34.65
2022-11-21T09:42:53.111Z,38.15
2022-11-21T09:46:03.044Z,37.97
2022-11-21T09:49:07.574Z,48.77
2022-11-21T09:52:11.925Z,49.67
2022-11-21T09:55:28.925Z,53.42
2022-11-21T09:58:42.224Z,52.80
2022-11-21T10:01:43.849Z,55.50
2022-11-21T10:04:47.148Z,52.93
2022-11-21T10:07:53.073Z,42.97
2022-11-21T10:10:58.826Z,46.90
2022-11-21T10:14:23.358Z,39.08
2022-11-21T10:17:48.662Z,43.53
2022-11-21T10:20:54.494Z,44.80
2022-11-21T10:23:56.550Z,40.73
2022-11-21T10:27:04.352Z,42.53
2022-11-21T10:30:14.383Z,51.78
2022-11-21T10:33:26.484Z,55.88
2022-11-21T10:36:36.679Z,53.03
2022-11-21T10:39:43.379Z,52.43
2022-11-21T10:43:26.384Z,50.92
2022-11-21T10:46:28.051Z,47.45
2022-11-21T10:49:34.288Z,45.60
2022-11-21T10:52:49.195Z,42.43
2022-11-21T10:56:01.751Z,36.30
2022-11-21T10:59:18.956Z,30.67
2022-11-21T11:02:20.569Z,28.23
2022-11-21T11:05:24.389Z,21.17
2022-11-21T11:08:28.034Z,21.43
2022-11-21T11:11:29.708Z,18.97
2022-11-21T11:14:33.035Z,19.10
2022-11-21T11:17:34.688Z,16.90
2022-11-21T11:20:38.354Z,17.35
2022-11-21T11:28:53.073Z,15.50
2022-11-21T11:32:02.100Z,17.30
2022-11-21T11:35:12.795Z,15.68
2022-11-21T11:38:14.659Z,17.50
2022-11-21T11:41:52.445Z,15.20
2022-11-21T11:45:18.922Z,12.53
2022-11-21T11:48:20.672Z,11.40
2022-11-21T11:51:31.906Z,11.70
2022-11-21T11:54:45.406Z,11.80
2022-11-21T11:57:50.212Z,11.70
2022-11-21T12:01:00.484Z,10.20
2022-11-21T12:04:20.914Z,10.32
2022-11-21T12:08:33.291Z,10.63
2022-11-21T12:11:42.149Z,13.57
2022-11-21T12:15:14.593Z,11.97
2022-11-21T12:18:19.640Z,13.27
2022-11-21T12:21:23.432Z,14.10
2022-11-21T12:24:25.130Z,15.70
2022-11-21T12:27:31.867Z,13.00
2022-11-21T12:30:36.435Z,15.40
2022-11-21T12:33:58.582Z,15.27
2022-11-21T12:37:09.574Z,15.07
2022-11-21T12:40:26.431Z,11.60
2022-11-21T12:43:49.876Z,12.63
2022-11-21T12:47:19.147Z,14.23
2022-11-21T12:50:46.459Z,13.73
2022-11-21T12:54:31.224Z,15.05
2022-11-21T12:57:55.631Z,17.75
2022-11-21T13:01:20.864Z,19.35
2022-11-21T13:04:30.434Z,16.00
2022-11-21T13:07:32.865Z,16.10
2022-11-21T13:10:34.823Z,14.68
2022-11-21T13:13:38.836Z,15.80
2022-11-21T13:16:48.263Z,18.95
2022-11-21T13:19:58.795Z,15.77
2022-11-21T13:23:06.299Z,15.77
2022-11-21T13:26:25.958Z,22.92
2022-11-21T13:29:27.864Z,20.33
2022-11-21T13:32:43.593Z,20.60
2022-11-21T13:35:51.365Z,31.47
2022-11-21T13:38:53.765Z,21.53
2022-11-21T13:42:23.439Z,17.60
2022-11-21T13:45:43.554Z,15.40
2022-11-21T13:49:10.002Z,16.00
2022-11-21T13:52:26.294Z,16.57
2022-11-21T13:55:47.194Z,16.63
2022-11-21T13:59:04.073Z,16.02
2022-11-21T14:02:30.381Z,16.05
2022-11-21T14:05:47.788Z,16.33
2022-11-21T14:09:28.933Z,14.23
2022-11-21T14:12:44.068Z,19.13
2022-11-21T14:15:57.876Z,17.52
2022-11-21T14:19:00.729Z,14.15
2022-11-21T14:22:02.410Z,14.18
2022-11-21T14:25:10.720Z,17.70
2022-11-21T14:28:16.564Z,17.97
2022-11-21T14:31:19.091Z,14.57
2022-11-21T14:34:28.842Z,16.52
2022-11-21T14:37:45.195Z,15.43
2022-11-21T14:41:12.255Z,19.90
2022-11-21T14:44:20.159Z,21.73
2022-11-21T14:47:26.231Z,26.38
2022-11-21T14:50:31.561Z,25.25
2022-11-21T14:53:33.307Z,24.27
2022-11-21T14:56:34.970Z,20.97
2022-11-21T14:59:41.867Z,15.80
2022-11-21T15:02:43.450Z,13.15
2022-11-21T15:06:01.928Z,14.00
2022-11-21T15:12:41.485Z,15.87
2022-11-21T15:15:51.016Z,14.77
2022-11-21T15:18:52.903Z,18.23
2022-11-21T15:21:57.413Z,18.10
2022-11-21T15:25:29.566Z,18.63
2022-11-21T15:28:31.890Z,17.53
2022-11-21T15:31:33.452Z,15.57
2022-11-21T15:37:57.788Z,14.45
2022-11-21T15:41:05.452Z,13.77
2022-11-21T15:44:07.029Z,14.20
2022-11-21T15:47:08.624Z,17.30
2022-11-21T15:50:10.424Z,16.85
2022-11-21T15:53:19.227Z,18.15
2022-11-21T15:56:23.064Z,19.58
2022-11-21T15:57:15.536Z,15.38
2022-11-21T15:59:25.268Z,22.03
2022-11-21T16:02:26.840Z,17.57
2022-11-21T16:05:28.513Z,17.70
2022-11-21T16:08:30.627Z,16.08
2022-11-21T16:11:34.730Z,46.45
2022-11-21T16:14:36.381Z,58.07
2022-11-21T16:17:39.368Z,42.27
2022-11-21T16:20:41.162Z,49.13
2022-11-21T16:23:43.242Z,55.95
2022-11-21T16:26:44.989Z,73.20
2022-11-21T16:29:47.048Z,47.67
2022-11-21T16:32:51.160Z,46.53
2022-11-21T16:35:56.707Z,52.35
2022-11-21T16:39:05.257Z,58.63
2022-11-21T16:42:11.387Z,46.65
2022-11-21T16:45:13.098Z,55.77
2022-11-21T16:48:14.958Z,43.47
2022-11-21T16:51:20.102Z,52.00
2022-11-21T16:54:22.083Z,46.47
2022-11-21T16:57:23.646Z,46.22
2022-11-21T17:00:26.681Z,44.80
2022-11-21T17:03:28.417Z,44.33
2022-11-21T17:06:31.550Z,49.15
2022-11-21T17:09:33.280Z,62.20
2022-11-21T17:12:39.447Z,58.30
2022-11-21T17:15:41.271Z,53.53
2022-11-21T17:18:43.802Z,55.80
2022-11-21T17:21:45.972Z,58.45
2022-11-21T17:24:47.763Z,63.40
2022-11-21T17:27:49.723Z,62.85
2022-11-21T17:30:51.447Z,69.90
2022-11-21T17:33:55.356Z,63.43
2022-11-21T17:36:57.447Z,67.75
2022-11-21T17:39:59.679Z,83.38
2022-11-21T17:43:01.657Z,76.70
2022-11-21T17:46:11.330Z,73.30
2022-11-21T17:49:13.714Z,72.43
2022-11-21T17:52:15.658Z,69.15
2022-11-21T17:55:17.483Z,72.45
2022-11-21T17:58:19.541Z,68.45
2022-11-21T18:01:22.077Z,68.87
2022-11-21T18:04:24.153Z,70.20
2022-11-21T18:07:26.700Z,72.97
2022-11-21T18:10:43.023Z,79.15
2022-11-21T18:13:45.732Z,83.10
2022-11-21T18:16:52.787Z,77.47
2022-11-21T18:19:55.137Z,92.93
2022-11-21T18:22:56.980Z,89.03
2022-11-21T18:26:04.667Z,108.25
2022-11-21T18:32:29.953Z,74.70
2022-11-21T18:35:31.814Z,79.93
2022-11-21T18:38:56.523Z,78.63
2022-11-21T18:41:57.628Z,73.25
2022-11-21T18:44:59.624Z,68.88
2022-11-21T18:48:01.463Z,68.93
2022-11-21T18:51:15.459Z,76.43
2022-11-21T18:54:17.417Z,83.80
2022-11-21T18:57:19.175Z,71.80
2022-11-21T19:00:21.093Z,119.97
2022-11-21T19:03:24.094Z,76.83
2022-11-21T19:06:27.487Z,78.80
2022-11-21T19:09:32.470Z,93.80
2022-11-21T19:12:39.528Z,103.35
2022-11-21T19:15:42.997Z,108.70
2022-11-21T19:18:59.831Z,114.93
2022-11-21T19:22:09.102Z,117.20
2022-11-21T19:25:10.651Z,123.72
2022-11-21T19:28:12.548Z,126.13
2022-11-21T19:31:17.076Z,135.38
2022-11-21T19:34:18.995Z,139.97
2022-11-21T19:37:21.188Z,93.37
2022-11-21T19:40:25.011Z,87.13
2022-11-21T19:43:31.257Z,122.68
2022-11-21T19:46:37.644Z,83.75
2022-11-21T19:49:39.434Z,62.13
2022-11-21T19:52:41.078Z,41.97
2022-11-21T19:55:42.875Z,27.83
2022-11-21T19:58:45.581Z,40.80
2022-11-21T20:01:52.373Z,28.20
2022-11-21T20:04:54.305Z,24.07
2022-11-21T20:08:01.691Z,25.80
2022-11-21T20:11:10.274Z,23.02
2022-11-21T20:14:19.664Z,27.40
2022-11-21T20:17:22.906Z,28.15
2022-11-21T20:20:24.806Z,30.67
2022-11-21T20:23:26.681Z,29.20
2022-11-21T20:26:28.711Z,28.27
2022-11-21T20:29:31.910Z,32.67
2022-11-21T20:32:34.986Z,29.75
2022-11-21T20:35:39.122Z,27.13
2022-11-21T20:38:41.742Z,27.17
2022-11-21T20:41:45.288Z,30.15
2022-11-21T20:48:13.565Z,26.70
2022-11-21T20:54:39.523Z,25.70
2022-11-21T20:57:41.945Z,23.75
2022-11-21T21:00:43.637Z,23.90
2022-11-21T21:03:45.434Z,28.30
2022-11-21T21:06:47.141Z,31.57
2022-11-21T21:09:48.766Z,48.47
2022-11-21T21:12:51.221Z,54.67
2022-11-21T21:15:52.831Z,63.03
2022-11-21T21:18:55.382Z,39.65
2022-11-21T21:21:57.102Z,33.63
2022-11-21T21:24:58.909Z,45.70
2022-11-21T21:28:00.470Z,43.10
2022-11-21T21:31:06.875Z,43.97
2022-11-21T21:34:09.738Z,40.90
2022-11-21T21:37:11.365Z,32.97
2022-11-21T21:40:13.201Z,29.33
2022-11-21T21:43:14.858Z,28.80
2022-11-21T21:46:18.267Z,30.48
2022-11-21T21:49:20.271Z,29.48
2022-11-21T21:52:21.841Z,32.57
2022-11-21T21:55:23.439Z,26.57
2022-11-21T21:58:25.205Z,25.73
2022-11-21T22:01:29.618Z,29.33
2022-11-21T22:04:33.047Z,32.97
2022-11-21T22:07:34.738Z,28.93
2022-11-21T22:10:36.384Z,25.10
2022-11-21T22:13:39.674Z,23.88
2022-11-21T22:16:42.452Z,24.60
2022-11-21T22:19:44.023Z,24.90
2022-11-21T22:22:45.625Z,26.77
2022-11-21T22:25:47.285Z,25.93
2022-11-21T22:28:49.041Z,24.30
2022-11-21T22:31:51.535Z,25.27
2022-11-21T22:34:53.079Z,19.02
2022-11-21T22:37:54.676Z,21.33
2022-11-21T22:41:23.780Z,19.50
2022-11-21T22:44:25.358Z,18.20
2022-11-21T22:47:26.964Z,19.02
2022-11-21T22:50:29.211Z,17.33
2022-11-21T22:53:34.459Z,20.87
2022-11-21T22:56:38.711Z,21.77
2022-11-21T22:59:40.371Z,25.50
2022-11-21T23:02:42.089Z,26.33
2022-11-21T23:05:43.682Z,26.70
2022-11-21T23:08:45.897Z,35.17
2022-11-21T23:11:47.433Z,30.93
2022-11-21T23:14:49.029Z,34.42
2022-11-21T23:17:52.638Z,35.50
2022-11-21T23:20:54.388Z,35.90
2022-11-21T23:23:56.298Z,35.47
2022-11-21T23:26:57.874Z,33.43
2022-11-21T23:29:59.479Z,31.58
2022-11-21T23:33:01.305Z,30.90
2022-11-21T23:36:02.878Z,31.33
2022-11-21T23:39:04.841Z,26.60
2022-11-21T23:42:06.467Z,30.67
2022-11-21T23:45:08.687Z,27.85
2022-11-21T23:48:10.276Z,25.85
2022-11-21T23:51:12.019Z,25.45
2022-11-21T23:54:13.657Z,30.07
2022-11-21T23:57:15.234Z,34.07
